Time;durP1;ratioP1;P1;durP2;ratioP2;P2;SDS_P1;SDS_P2;PMS_P1;PMS_P2;Temp;Humidity;BMP_temperature;BMP_pressure;BME280_temperature;BME280_humidity;BME280_pressure;Samples;Min_cycle;Max_cycle;Signal;HPM_P1;HPM_P2
2022/07/13 00:02:21;;;;;;;0.68;0.65;;;;;;;21.57;44.96;97921.41;4941829;28;20661;-75
2022/07/13 00:04:46;;;;;;;0.75;0.60;;;;;;;21.67;44.94;97915.91;4944601;28;20199;-75
2022/07/13 00:07:11;;;;;;;1.70;0.50;;;;;;;21.64;44.71;97921.78;4944798;28;20771;-75
2022/07/13 00:09:37;;;;;;;0.52;0.52;;;;;;;21.62;44.33;97916.00;4960983;28;20219;-75
2022/07/13 00:12:03;;;;;;;0.57;0.57;;;;;;;21.59;44.43;97912.09;4944754;28;20367;-75
2022/07/13 00:14:29;;;;;;;1.10;0.50;;;;;;;21.61;44.57;97919.72;4960917;28;20203;-75
2022/07/13 00:16:54;;;;;;;0.63;0.50;;;;;;;21.61;44.43;97915.25;4938731;28;20175;-75
2022/07/13 00:19:19;;;;;;;0.80;0.50;;;;;;;21.60;44.41;97918.97;4928517;28;20269;-75
2022/07/13 00:21:45;;;;;;;0.70;0.70;;;;;;;21.63;44.56;97917.59;4961217;28;21055;-75
2022/07/13 00:24:14;;;;;;;0.60;0.60;;;;;;;21.69;44.36;97926.97;4946848;28;20184;-75
2022/07/13 00:26:40;;;;;;;0.85;0.50;;;;;;;21.68;44.26;97915.59;4945886;28;20248;-75
2022/07/13 00:29:05;;;;;;;1.85;0.60;;;;;;;21.67;44.49;97907.94;4961387;28;20303;-75
2022/07/13 00:31:31;;;;;;;0.50;0.50;;;;;;;21.64;44.58;97911.19;4961225;28;20618;-75
2022/07/13 00:33:56;;;;;;;0.70;0.70;;;;;;;21.57;44.96;97902.88;4944235;28;20566;-75
2022/07/13 00:36:22;;;;;;;0.90;0.63;;;;;;;21.51;44.97;97904.84;4946402;28;20599;-75
2022/07/13 00:38:48;;;;;;;1.05;0.60;;;;;;;21.46;45.10;97911.03;4944471;28;20197;-75
2022/07/13 00:41:13;;;;;;;1.40;0.55;;;;;;;21.40;44.84;97904.22;4960916;28;20286;-75
2022/07/13 00:43:38;;;;;;;0.65;0.45;;;;;;;21.37;44.64;97909.34;4960382;28;20273;-75
2022/07/13 00:46:04;;;;;;;1.55;0.50;;;;;;;21.38;44.13;97906.41;4960375;28;20249;-75
2022/07/13 00:48:30;;;;;;;1.08;0.70;;;;;;;21.37;44.30;97896.09;4944472;28;20223;-75
2022/07/13 00:50:56;;;;;;;0.90;0.60;;;;;;;21.35;44.13;97901.69;4945071;28;20188;-75
2022/07/13 00:53:23;;;;;;;1.27;0.52;;;;;;;21.29;44.32;97895.72;4964510;28;20172;-75
2022/07/13 00:55:49;;;;;;;1.00;0.70;;;;;;;21.40;44.08;97895.50;4964121;28;20221;-75
2022/07/13 00:58:14;;;;;;;0.50;0.50;;;;;;;21.41;44.32;97895.22;4963175;28;20708;-75
2022/07/13 01:00:40;;;;;;;0.90;0.47;;;;;;;21.35;44.43;97901.69;4945524;28;20313;-75
2022/07/13 01:03:05;;;;;;;0.82;0.57;;;;;;;21.28;45.25;97901.31;4929547;28;20568;-75
2022/07/13 01:05:31;;;;;;;0.50;0.50;;;;;;;21.24;45.01;97895.06;4963077;28;20212;-75
2022/07/13 01:07:56;;;;;;;0.50;0.50;;;;;;;21.17;45.07;97898.09;4947954;28;20727;-75
2022/07/13 01:10:22;;;;;;;0.52;0.52;;;;;;;21.08;45.06;97898.00;4947887;28;20255;-75
2022/07/13 01:12:47;;;;;;;1.25;0.60;;;;;;;21.05;45.25;97893.28;4948264;28;20704;-77
2022/07/13 01:15:13;;;;;;;0.50;0.50;;;;;;;21.03;45.38;97892.81;4969578;28;20219;-78
2022/07/13 01:17:39;;;;;;;0.68;0.60;;;;;;;20.98;45.61;97881.53;4952696;28;20270;-78
2022/07/13 01:20:06;;;;;;;0.88;0.65;;;;;;;20.94;45.94;97876.84;4951012;28;20366;-75
2022/07/13 01:22:38;;;;;;;0.52;0.50;;;;;;;20.79;46.07;97879.78;4947705;28;20133;-75
2022/07/13 01:25:04;;;;;;;5.80;1.10;;;;;;;20.87;46.29;97873.00;4930723;28;20241;-75
2022/07/13 01:27:33;;;;;;;0.55;0.50;;;;;;;20.75;46.66;97870.81;4947609;28;20204;-75
2022/07/13 01:29:59;;;;;;;0.50;0.40;;;;;;;20.81;46.50;97876.84;4963581;28;20186;-75
2022/07/13 01:32:24;;;;;;;0.60;0.57;;;;;;;20.81;46.63;97880.25;4930812;28;20647;-75
2022/07/13 01:34:50;;;;;;;0.60;0.60;;;;;;;20.79;46.65;97881.63;4949171;28;20630;-78
2022/07/13 01:37:15;;;;;;;0.60;0.60;;;;;;;20.81;46.61;97882.91;4949918;28;20377;-77
2022/07/13 01:39:41;;;;;;;1.67;0.93;;;;;;;20.89;46.51;97878.81;4931557;28;20187;-77
2022/07/13 01:42:06;;;;;;;0.52;0.50;;;;;;;20.75;46.91;97873.47;4948487;28;20172;-77
2022/07/13 01:44:31;;;;;;;0.65;0.65;;;;;;;20.65;47.24;97877.13;4947142;28;20215;-77
2022/07/13 01:46:57;;;;;;;0.50;0.50;;;;;;;20.58;47.35;97868.75;4931548;28;20244;-77
2022/07/13 01:49:22;;;;;;;0.40;0.40;;;;;;;20.55;47.04;97871.97;4947981;28;20773;-77
2022/07/13 01:51:48;;;;;;;0.60;0.60;;;;;;;20.51;47.01;97879.72;4949459;28;20220;-77
2022/07/13 01:54:13;;;;;;;0.60;0.60;;;;;;;20.53;46.81;97876.78;4949611;28;20286;-77
2022/07/13 01:56:39;;;;;;;1.73;0.52;;;;;;;20.50;46.70;97877.34;4947086;28;20242;-77
2022/07/13 01:59:04;;;;;;;0.85;0.50;;;;;;;20.50;46.42;97877.34;4947593;28;20370;-77
2022/07/13 02:01:30;;;;;;;7.22;1.20;;;;;;;20.54;46.50;97881.75;4931322;28;20211;-77
2022/07/13 02:03:55;;;;;;;0.90;0.90;;;;;;;20.56;47.06;97878.81;4955161;28;20208;-77
2022/07/13 02:06:21;;;;;;;0.95;0.50;;;;;;;20.52;47.13;97877.84;4949521;28;20246;-77
2022/07/13 02:08:46;;;;;;;0.50;0.50;;;;;;;20.53;46.82;97876.78;4948888;28;20188;-77
2022/07/13 02:11:16;;;;;;;0.63;0.50;;;;;;;20.42;47.39;97880.66;4947555;28;20210;-77
2022/07/13 02:13:43;;;;;;;1.35;0.50;;;;;;;20.46;47.76;97871.06;4964327;28;20216;-77
2022/07/13 02:16:09;;;;;;;0.52;0.47;;;;;;;20.45;47.43;97867.66;4947367;28;20582;-77
2022/07/13 02:18:34;;;;;;;1.15;0.40;;;;;;;20.45;47.73;97872.16;4950228;28;20197;-77
2022/07/13 02:21:00;;;;;;;0.82;0.50;;;;;;;20.39;47.70;97866.16;4948457;28;20250;-77
2022/07/13 02:23:25;;;;;;;0.65;0.50;;;;;;;20.44;47.65;97862.63;4948507;28;20708;-77
2022/07/13 02:25:51;;;;;;;0.70;0.70;;;;;;;20.48;47.83;97858.34;4916938;28;20299;-77
2022/07/13 02:28:17;;;;;;;0.52;0.52;;;;;;;20.44;47.91;97841.47;4946267;28;20657;-77
2022/07/13 02:30:43;;;;;;;0.70;0.57;;;;;;;20.43;47.92;97839.94;4945980;28;20099;-77
2022/07/13 02:33:09;;;;;;;1.10;0.68;;;;;;;20.55;47.41;97846.28;4946136;28;20298;-77
2022/07/13 02:35:34;;;;;;;0.60;0.43;;;;;;;20.56;47.54;97841.78;4962450;28;20654;-77
2022/07/13 02:38:00;;;;;;;1.35;0.68;;;;;;;20.59;48.05;97838.56;4949948;28;20249;-77
2022/07/13 02:40:26;;;;;;;0.77;0.60;;;;;;;20.52;48.62;97832.88;4964611;28;20204;-77
2022/07/13 02:42:51;;;;;;;1.50;0.70;;;;;;;20.44;48.89;97825.59;4951232;28;20199;-77
2022/07/13 02:45:17;;;;;;;0.68;0.65;;;;;;;20.42;48.44;97825.91;4954959;28;20195;-77
2022/07/13 02:47:42;;;;;;;0.70;0.70;;;;;;;20.40;48.09;97826.19;4977951;28;20287;-77
2022/07/13 02:50:08;;;;;;;1.13;0.80;;;;;;;20.37;48.39;97818.88;4961058;28;20169;-77
2022/07/13 02:52:33;;;;;;;0.80;0.80;;;;;;;20.39;48.19;97823.84;4949796;28;20215;-77
2022/07/13 02:54:58;;;;;;;1.02;0.90;;;;;;;20.38;47.79;97831.00;4946273;28;20169;-77
2022/07/13 02:57:24;;;;;;;0.80;0.70;;;;;;;20.34;47.99;97831.84;4948277;28;20292;-77
2022/07/13 02:59:50;;;;;;;1.02;0.70;;;;;;;20.36;47.67;97827.84;4946999;28;20195;-77
2022/07/13 03:02:17;;;;;;;0.70;0.70;;;;;;;20.37;48.05;97826.00;4947555;28;20642;-77
2022/07/13 03:04:43;;;;;;;0.80;0.68;;;;;;;20.31;48.29;97833.25;4946886;28;20345;-77
2022/07/13 03:07:09;;;;;;;0.95;0.68;;;;;;;20.33;48.16;97820.50;4913412;28;20195;-77
2022/07/13 03:09:35;;;;;;;1.60;0.60;;;;;;;20.34;47.73;97831.84;4945402;28;20208;-77
2022/07/13 03:12:00;;;;;;;0.65;0.65;;;;;;;20.23;48.04;97825.97;4962024;28;20217;-77
2022/07/13 03:14:26;;;;;;;0.98;0.50;;;;;;;20.22;48.37;97829.72;4945210;28;20188;-77
2022/07/13 03:16:52;;;;;;;9.85;2.35;;;;;;;20.14;48.56;97835.66;4962788;28;20377;-77
2022/07/13 03:19:17;;;;;;;0.77;0.77;;;;;;;20.04;49.00;97825.25;4964002;28;20772;-77
2022/07/13 03:21:43;;;;;;;1.17;0.70;;;;;;;19.96;49.19;97819.56;4965687;28;20200;-77
2022/07/13 03:24:09;;;;;;;0.80;0.70;;;;;;;19.95;49.60;97820.63;4948778;28;20195;-77
2022/07/13 03:26:34;;;;;;;0.57;0.50;;;;;;;19.89;49.62;97821.00;4913767;28;20570;-77
2022/07/13 03:29:00;;;;;;;1.65;0.70;;;;;;;19.83;49.60;97820.28;4947371;28;20191;-77
2022/07/13 03:31:26;;;;;;;0.85;0.85;;;;;;;19.75;49.69;97820.94;4945769;28;20271;-77
2022/07/13 03:33:51;;;;;;;1.60;0.80;;;;;;;19.74;49.73;97824.63;4962340;28;20289;-77
2022/07/13 03:36:17;;;;;;;1.30;0.80;;;;;;;19.72;49.66;97819.63;4945893;28;20692;-77
2022/07/13 03:38:42;;;;;;;0.95;0.85;;;;;;;19.67;49.82;97824.19;4962431;28;20377;-77
2022/07/13 03:41:08;;;;;;;1.40;0.77;;;;;;;19.61;50.27;97821.63;4929489;28;20634;-77
2022/07/13 03:43:33;;;;;;;0.70;0.70;;;;;;;19.62;50.35;97831.16;4945696;28;20199;-77
2022/07/13 03:45:58;;;;;;;1.92;0.80;;;;;;;19.59;50.56;97823.78;4961507;28;20285;-77
2022/07/13 03:48:24;;;;;;;1.13;0.80;;;;;;;19.56;50.84;97818.28;4945235;28;20199;-77
2022/07/13 03:50:49;;;;;;;0.93;0.77;;;;;;;19.54;50.67;97815.16;4945640;28;20282;-77
2022/07/13 03:53:15;;;;;;;0.80;0.80;;;;;;;19.49;51.00;97808.09;4945691;28;20191;-77
2022/07/13 03:55:42;;;;;;;1.00;1.00;;;;;;;19.49;50.98;97808.09;4961791;28;20214;-77
2022/07/13 03:58:07;;;;;;;1.05;0.95;;;;;;;19.49;51.19;97802.81;4962368;28;20253;-77
2022/07/13 04:00:33;;;;;;;1.02;0.90;;;;;;;19.52;51.42;97804.88;4946062;28;20172;-77
2022/07/13 04:02:58;;;;;;;1.20;1.13;;;;;;;19.56;51.06;97800.59;4962102;28;20287;-77
2022/07/13 04:05:24;;;;;;;0.85;0.85;;;;;;;19.67;51.04;97801.19;4946274;28;20644;-77
2022/07/13 04:07:50;;;;;;;1.13;0.88;;;;;;;19.72;50.91;97790.56;4947176;28;20293;-75
2022/07/13 04:10:18;;;;;;;1.25;0.80;;;;;;;19.80;50.49;97792.56;4945058;28;20674;-75
2022/07/13 04:12:44;;;;;;;1.10;0.90;;;;;;;19.89;50.83;97790.06;4961356;28;20211;-75
2022/07/13 04:15:10;;;;;;;0.70;0.70;;;;;;;19.95;50.80;97793.41;4928077;28;20600;-75
2022/07/13 04:17:35;;;;;;;0.90;0.90;;;;;;;20.02;50.87;97793.81;4946476;28;20218;-75
2022/07/13 04:20:00;;;;;;;0.80;0.80;;;;;;;20.08;50.82;97797.16;4946403;28;20253;-75
2022/07/13 04:22:26;;;;;;;1.15;1.00;;;;;;;20.16;50.22;97796.50;4964914;28;20277;-78
2022/07/13 04:24:51;;;;;;;0.98;0.77;;;;;;;20.21;50.38;97791.88;4949591;28;20192;-78
2022/07/13 04:27:17;;;;;;;0.82;0.82;;;;;;;20.30;51.06;97794.63;4967716;28;20195;-78
2022/07/13 04:29:42;;;;;;;1.00;0.93;;;;;;;20.37;51.21;97792.41;4928277;28;20289;-78
2022/07/13 04:32:07;;;;;;;0.70;0.70;;;;;;;20.47;50.97;97795.94;4951951;28;20288;-78
2022/07/13 04:34:33;;;;;;;1.48;0.80;;;;;;;20.55;50.97;97797.91;4968445;28;20169;-78
2022/07/13 04:36:58;;;;;;;1.00;0.80;;;;;;;20.61;51.21;97793.28;4935699;28;20256;-78
2022/07/13 04:39:23;;;;;;;1.00;0.90;;;;;;;20.68;50.90;97796.34;4953316;28;20199;-75
2022/07/13 04:41:49;;;;;;;1.90;0.65;;;;;;;20.73;50.69;97799.69;4964757;28;20177;-75
2022/07/13 04:44:14;;;;;;;0.95;0.88;;;;;;;20.78;50.80;97801.44;4957771;28;20220;-76
2022/07/13 04:46:39;;;;;;;1.20;0.98;;;;;;;20.86;50.69;97800.75;4931708;28;20591;-78
2022/07/13 04:49:05;;;;;;;1.20;1.08;;;;;;;20.95;50.01;97803.47;4951029;28;20195;-78
2022/07/13 04:51:31;;;;;;;1.42;0.93;;;;;;;21.05;50.25;97799.84;4951522;28;20689;-78
2022/07/13 04:53:57;;;;;;;1.00;0.90;;;;;;;21.15;50.68;97799.63;4951457;28;20211;-78
2022/07/13 04:56:22;;;;;;;0.95;0.80;;;;;;;21.25;51.30;97806.56;4967315;28;20254;-78
2022/07/13 04:58:48;;;;;;;0.95;0.82;;;;;;;21.29;50.32;97812.84;4967944;28;20264;-78
2022/07/13 05:01:13;;;;;;;2.35;0.88;;;;;;;21.32;49.07;97806.94;4951373;28;20239;-78
2022/07/13 05:03:38;;;;;;;1.38;0.98;;;;;;;21.36;49.60;97820.38;4949988;28;20707;-78
2022/07/13 05:06:04;;;;;;;1.20;1.10;;;;;;;21.30;49.97;97814.38;4950132;28;20196;-78
2022/07/13 05:08:29;;;;;;;1.35;1.00;;;;;;;21.23;50.60;97814.00;4950057;28;20250;-77
2022/07/13 05:10:55;;;;;;;1.73;1.27;;;;;;;21.23;50.72;97808.72;4948687;28;20215;-78
2022/07/13 05:13:21;;;;;;;2.80;1.13;;;;;;;21.27;50.97;97815.78;4950710;28;20601;-77
2022/07/13 05:15:46;;;;;;;1.50;1.05;;;;;;;21.33;50.45;97824.38;4931996;28;20215;-77
2022/07/13 05:18:12;;;;;;;1.00;1.00;;;;;;;21.40;50.35;97816.81;4929040;28;20204;-78
2022/07/13 05:20:37;;;;;;;0.95;0.88;;;;;;;21.49;50.38;97823.00;4963162;28;20173;-78
2022/07/13 05:23:03;;;;;;;1.10;1.00;;;;;;;21.56;50.37;97821.78;4950529;28;20188;-78
2022/07/13 05:25:29;;;;;;;1.25;0.90;;;;;;;21.64;50.63;97824.53;4948178;28;20618;-77
2022/07/13 05:27:54;;;;;;;1.00;1.00;;;;;;;21.69;50.21;97827.06;4962245;28;20131;-77
2022/07/13 05:30:19;;;;;;;0.93;0.93;;;;;;;21.77;49.22;97832.72;4929156;28;20269;-78
2022/07/13 05:32:45;;;;;;;1.15;0.80;;;;;;;21.85;48.07;97827.47;4962558;28;20832;-77
2022/07/13 05:35:10;;;;;;;0.80;0.80;;;;;;;21.97;47.66;97828.78;4946061;28;20188;-78
2022/07/13 05:37:36;;;;;;;0.90;0.90;;;;;;;22.07;48.49;97834.66;4931375;28;20267;-77
2022/07/13 05:40:02;;;;;;;1.13;0.90;;;;;;;22.18;50.51;97824.56;4964549;28;20555;-77
2022/07/13 05:42:28;;;;;;;2.17;1.08;;;;;;;22.26;49.79;97831.00;4964956;28;20204;-77
2022/07/13 05:44:53;;;;;;;1.35;1.25;;;;;;;22.37;49.80;97829.66;4957530;28;20146;-77
2022/07/13 05:47:19;;;;;;;1.48;0.93;;;;;;;22.43;49.30;97822.34;4948748;28;20642;-77
2022/07/13 05:49:44;;;;;;;0.80;0.80;;;;;;;22.50;48.89;97811.28;4949045;28;20196;-77
2022/07/13 05:52:10;;;;;;;0.77;0.77;;;;;;;22.57;48.30;97812.44;4948786;28;20207;-77
2022/07/13 05:54:35;;;;;;;0.80;0.80;;;;;;;22.66;47.89;97822.31;4919423;28;20632;-77
2022/07/13 05:57:01;;;;;;;1.55;0.90;;;;;;;22.74;47.52;97821.53;4948624;28;20810;-78
2022/07/13 05:59:27;;;;;;;0.98;0.80;;;;;;;22.86;47.20;97818.28;4948810;28;20360;-77
2022/07/13 06:01:53;;;;;;;0.70;0.70;;;;;;;22.95;46.86;97817.22;4948207;28;20330;-77
2022/07/13 06:04:19;;;;;;;1.58;1.13;;;;;;;23.08;48.08;97826.19;4949301;28;20286;-77
2022/07/13 06:06:44;;;;;;;1.52;1.25;;;;;;;23.16;48.95;97816.66;4949637;28;20366;-77
2022/07/13 06:09:09;;;;;;;1.35;0.95;;;;;;;23.19;48.63;97816.03;4947881;28;20816;-77
2022/07/13 06:11:35;;;;;;;1.02;1.00;;;;;;;23.28;48.26;97824.78;4948118;28;20298;-77
2022/07/13 06:14:00;;;;;;;1.50;1.17;;;;;;;23.32;47.86;97823.09;4931051;28;20107;-77
2022/07/13 06:16:25;;;;;;;1.40;1.30;;;;;;;23.33;47.52;97821.97;4964108;28;20218;-77
2022/07/13 06:18:51;;;;;;;2.65;1.10;;;;;;;23.36;47.52;97824.03;4947554;28;20570;-77
2022/07/13 06:21:16;;;;;;;1.88;1.10;;;;;;;23.44;48.35;97830.44;4931282;28;20226;-77
2022/07/13 06:23:41;;;;;;;1.10;1.10;;;;;;;23.52;49.35;97823.56;4915272;28;20373;-77
2022/07/13 06:26:07;;;;;;;3.70;1.85;;;;;;;23.66;49.33;97823.38;4944224;28;20193;-77
2022/07/13 06:28:32;;;;;;;2.58;1.45;;;;;;;23.80;49.09;97831.19;4963965;28;20216;-78
2022/07/13 06:30:58;;;;;;;4.78;1.67;;;;;;;23.95;49.16;97828.06;4978769;28;20219;-77
2022/07/13 06:33:23;;;;;;;2.70;1.48;;;;;;;24.09;50.23;97819.91;4963819;28;20296;-77
2022/07/13 06:35:48;;;;;;;1.75;1.50;;;;;;;24.31;49.72;97822.34;4946757;28;20184;-77
2022/07/13 06:38:15;;;;;;;0.93;0.93;;;;;;;24.49;47.52;97823.06;4930670;28;20335;-77
2022/07/13 06:40:40;;;;;;;1.35;1.20;;;;;;;24.71;46.35;97817.81;4963930;28;20211;-78
2022/07/13 06:43:05;;;;;;;1.00;1.00;;;;;;;24.89;45.78;97829.19;4948502;28;20173;-77
2022/07/13 06:45:31;;;;;;;1.75;0.90;;;;;;;24.95;45.74;97825.22;4940327;28;20169;-77
2022/07/13 06:47:56;;;;;;;1.90;1.10;;;;;;;25.11;45.17;97826.22;4946479;28;20192;-78
2022/07/13 06:50:22;;;;;;;4.00;1.40;;;;;;;25.36;44.31;97831.69;4962516;28;20243;-78
2022/07/13 06:52:47;;;;;;;1.92;1.00;;;;;;;25.49;43.77;97825.34;4946523;28;20164;-78
2022/07/13 06:55:14;;;;;;;1.52;0.80;;;;;;;25.67;43.03;97833.97;4962010;28;20547;-78
2022/07/13 06:57:39;;;;;;;1.85;0.95;;;;;;;25.80;41.54;97826.78;4930130;28;20285;-78
2022/07/13 07:00:06;;;;;;;2.33;1.10;;;;;;;25.83;41.97;97830.69;4946413;28;20259;-78
2022/07/13 07:02:32;;;;;;;2.70;1.20;;;;;;;25.92;42.04;97837.50;4915213;28;20220;-78
2022/07/13 07:04:57;;;;;;;0.93;0.93;;;;;;;26.04;42.21;97839.44;4942676;28;20251;-77
2022/07/13 07:07:23;;;;;;;2.25;1.60;;;;;;;26.18;42.81;97836.47;4945011;28;20262;-77
2022/07/13 07:09:48;;;;;;;2.05;1.15;;;;;;;26.31;42.58;97830.06;4964089;28;20282;-77
2022/07/13 07:12:14;;;;;;;1.77;1.30;;;;;;;26.44;41.44;97830.06;4932149;28;20249;-77
2022/07/13 07:14:39;;;;;;;2.42;1.00;;;;;;;26.54;41.44;97829.63;4945070;28;20378;-77
2022/07/13 07:17:05;;;;;;;2.35;1.30;;;;;;;26.53;42.17;97818.16;4945848;28;20242;-77
2022/07/13 07:19:30;;;;;;;1.17;1.17;;;;;;;26.77;41.76;97822.00;4946775;28;20540;-77
2022/07/13 07:21:55;;;;;;;1.58;1.25;;;;;;;26.96;40.78;97826.75;4963617;28;20266;-77
2022/07/13 07:24:21;;;;;;;1.38;1.27;;;;;;;27.19;39.46;97826.25;4948538;28;20238;-78
2022/07/13 07:26:47;;;;;;;1.33;1.17;;;;;;;27.31;38.66;97823.59;4946809;28;20300;-77
2022/07/13 07:29:14;;;;;;;1.08;0.98;;;;;;;27.43;38.99;97826.22;4962948;28;20188;-77
2022/07/13 07:31:39;;;;;;;2.05;1.30;;;;;;;27.58;39.51;97821.28;4947128;28;20207;-78
2022/07/13 07:34:05;;;;;;;1.00;0.98;;;;;;;27.65;38.32;97824.13;4962829;28;20298;-78
2022/07/13 07:36:31;;;;;;;0.90;0.90;;;;;;;27.65;36.91;97822.22;4930831;28;20639;-78
2022/07/13 07:38:56;;;;;;;0.65;0.65;;;;;;;27.71;36.88;97825.47;4947019;28;20215;-78
2022/07/13 07:41:21;;;;;;;2.05;1.48;;;;;;;27.74;35.98;97830.09;4946696;28;20250;-78
2022/07/13 07:43:48;;;;;;;0.80;0.80;;;;;;;27.87;34.81;97832.75;4957980;28;20746;-78
2022/07/13 07:46:13;;;;;;;2.30;1.17;;;;;;;27.88;35.13;97834.28;4975516;28;20283;-78
2022/07/13 07:48:39;;;;;;;0.63;0.63;;;;;;;27.89;34.72;97833.94;4978749;28;20283;-78
2022/07/13 07:51:05;;;;;;;2.00;0.93;;;;;;;27.94;35.40;97828.38;4980081;28;20208;-78
2022/07/13 07:53:31;;;;;;;0.73;0.68;;;;;;;28.07;34.34;97831.78;4948629;28;20766;-78
2022/07/13 07:55:56;;;;;;;0.80;0.80;;;;;;;28.21;34.48;97834.81;4946300;28;20295;-78
2022/07/13 07:58:21;;;;;;;0.80;0.80;;;;;;;28.42;34.24;97838.38;4947630;28;20188;-78
2022/07/13 08:00:47;;;;;;;0.63;0.63;;;;;;;28.74;34.00;97836.47;4948155;28;20208;-78
2022/07/13 08:03:12;;;;;;;1.02;0.70;;;;;;;29.14;33.37;97835.41;4948127;28;20614;-78
2022/07/13 08:05:38;;;;;;;0.80;0.80;;;;;;;29.42;32.87;97831.78;4964532;28;20185;-78
2022/07/13 08:08:04;;;;;;;0.57;0.57;;;;;;;29.89;32.03;97822.75;4933618;28;20687;-78
2022/07/13 08:10:30;;;;;;;0.70;0.70;;;;;;;30.03;31.46;97823.00;4950071;28;20296;-78
2022/07/13 08:12:59;;;;;;;1.30;0.60;;;;;;;30.29;30.87;97828.81;4949551;28;20622;-78
2022/07/13 08:15:24;;;;;;;1.52;0.60;;;;;;;30.42;31.75;97822.91;4933860;28;20281;-78
2022/07/13 08:17:50;;;;;;;1.52;0.80;;;;;;;30.67;31.02;97827.13;4934369;28;20261;-77
2022/07/13 08:20:15;;;;;;;0.85;0.80;;;;;;;30.77;30.32;97824.56;4950308;28;20165;-77
2022/07/13 08:22:41;;;;;;;1.33;0.98;;;;;;;30.91;30.22;97821.31;4933924;28;20277;-77
2022/07/13 08:25:06;;;;;;;1.85;1.00;;;;;;;30.80;30.60;97818.47;4951171;28;20286;-77
2022/07/13 08:27:32;;;;;;;1.02;0.90;;;;;;;30.83;31.01;97817.00;4950920;28;20156;-77
2022/07/13 08:29:58;;;;;;;1.50;0.85;;;;;;;30.86;30.62;97820.84;4949397;28;20207;-75
2022/07/13 08:32:24;;;;;;;1.85;0.95;;;;;;;30.86;30.53;97823.53;4947603;28;20203;-76
2022/07/13 08:40:21;;;;;;;3.08;1.02;;;;;;;30.62;31.42;97820.91;4947769;28;20191;-76
2022/07/13 08:42:47;;;;;;;0.90;0.90;;;;;;;30.76;31.42;97820.34;4914169;28;20274;-75
2022/07/13 08:45:13;;;;;;;0.90;0.90;;;;;;;30.73;31.34;97825.69;4957594;28;20170;-76
2022/07/13 08:47:40;;;;;;;0.98;0.98;;;;;;;30.86;30.85;97827.00;4930483;28;20640;-75
2022/07/13 08:50:07;;;;;;;1.00;1.00;;;;;;;30.93;31.52;97818.25;4949018;28;20282;-75
2022/07/13 08:52:38;;;;;;;1.02;1.00;;;;;;;30.97;31.61;97813.75;4947376;28;20274;-75
2022/07/13 08:55:05;;;;;;;1.25;1.00;;;;;;;31.36;30.57;97827.69;4962864;28;20246;-75
2022/07/13 08:57:37;;;;;;;1.83;0.60;;;;;;;31.46;30.58;97818.19;4949817;28;20332;-76
2022/07/13 09:00:06;;;;;;;2.08;1.00;;;;;;;31.64;30.82;97817.66;4946902;28;20169;-75
2022/07/13 09:02:32;;;;;;;0.80;0.70;;;;;;;31.39;31.06;97814.63;4946827;28;20172;-75
2022/07/13 09:04:58;;;;;;;1.05;0.77;;;;;;;31.48;30.39;97820.50;4962333;28;20202;-75
2022/07/13 09:07:24;;;;;;;0.95;0.95;;;;;;;31.65;30.02;97813.78;4963226;28;20187;-75
2022/07/13 09:09:53;;;;;;;1.77;0.90;;;;;;;31.63;29.59;97818.78;4963535;28;20217;-75
2022/07/13 09:12:24;;;;;;;0.70;0.70;;;;;;;31.63;29.33;97818.78;4945978;28;20215;-75
2022/07/13 09:14:56;;;;;;;1.40;0.82;;;;;;;31.81;28.51;97822.44;4962771;28;20377;-76
2022/07/13 09:17:29;;;;;;;1.25;0.93;;;;;;;31.91;28.49;97824.47;4946898;28;20696;-75
2022/07/13 09:19:55;;;;;;;0.98;0.65;;;;;;;31.78;28.70;97822.41;4947123;28;20358;-75
2022/07/13 09:22:20;;;;;;;0.80;0.60;;;;;;;32.03;29.00;97823.44;4941914;28;20840;-75
2022/07/13 09:24:47;;;;;;;0.60;0.60;;;;;;;32.23;28.50;97823.22;4944532;28;20624;-75
2022/07/13 09:27:13;;;;;;;0.95;0.88;;;;;;;32.27;28.52;97816.72;4926625;28;20187;-75
2022/07/13 09:29:39;;;;;;;1.20;0.70;;;;;;;32.67;27.72;97823.19;4939459;28;20199;-75
2022/07/13 09:32:11;;;;;;;1.08;0.63;;;;;;;32.75;27.33;97817.84;4946267;28;20199;-76
2022/07/13 09:34:54;;;;;;;0.73;0.73;;;;;;;32.94;28.06;97814.13;4945705;28;20263;-75
2022/07/13 09:37:20;;;;;;;0.80;0.80;;;;;;;33.43;26.67;97812.81;4963101;28;20246;-75
2022/07/13 09:40:06;;;;;;;0.80;0.70;;;;;;;33.70;25.42;97807.88;4946069;28;20207;-75
2022/07/13 09:42:37;;;;;;;1.38;0.90;;;;;;;33.87;25.67;97811.03;4944820;28;20670;-75
2022/07/13 09:47:54;;;;;;;0.90;0.80;;;;;;;33.76;24.99;97819.13;4945750;28;20333;-75
2022/07/13 09:50:24;;;;;;;0.77;0.77;;;;;;;34.12;24.82;97806.41;4945209;28;20276;-75
2022/07/13 09:52:51;;;;;;;0.90;0.90;;;;;;;34.36;23.95;97812.22;4938295;28;20640;-75
2022/07/13 09:55:22;;;;;;;0.95;0.80;;;;;;;34.56;23.88;97803.69;4971719;28;20292;-75
2022/07/13 09:57:51;;;;;;;0.95;0.95;;;;;;;34.80;23.71;97802.91;4943176;28;20195;-75
2022/07/13 10:00:17;;;;;;;0.50;0.50;;;;;;;34.94;22.96;97793.97;4927462;28;20191;-76
2022/07/13 10:02:47;;;;;;;1.13;0.85;;;;;;;35.14;21.81;97798.94;4945053;28;20207;-75
2022/07/13 10:05:15;;;;;;;1.42;1.33;;;;;;;35.49;22.07;97792.63;4928459;28;20384;-75
2022/07/13 10:07:42;;;;;;;2.05;0.80;;;;;;;35.85;21.90;97797.84;4929108;28;20729;-75
2022/07/13 10:10:07;;;;;;;0.80;0.80;;;;;;;35.56;20.96;97803.41;4961872;28;20187;-76
2022/07/13 10:12:36;;;;;;;12.07;2.35;;;;;;;35.75;20.35;97799.44;4961121;28;20308;-75
2022/07/13 10:15:02;;;;;;;1.00;0.80;;;;;;;35.47;20.74;97788.75;4960866;28;20223;-76
2022/07/13 10:17:27;;;;;;;0.80;0.80;;;;;;;35.11;21.36;97797.78;4944982;28;20192;-75
2022/07/13 10:19:55;;;;;;;0.90;0.90;;;;;;;35.05;21.23;97791.25;4938598;28;20796;-76
2022/07/13 10:22:23;;;;;;;0.80;0.80;;;;;;;35.17;21.78;97790.03;4945447;28;20276;-75
2022/07/13 10:24:52;;;;;;;1.20;0.90;;;;;;;35.05;21.13;97793.94;4959870;28;20192;-75
2022/07/13 10:27:26;;;;;;;1.02;0.82;;;;;;;34.94;21.87;97793.97;4964525;28;20143;-76
2022/07/13 10:29:56;;;;;;;2.58;1.10;;;;;;;35.06;22.68;97793.56;4922807;28;20338;-76
2022/07/13 10:32:26;;;;;;;0.80;0.80;;;;;;;34.88;22.30;97793.59;4945104;28;20161;-75
2022/07/13 10:35:11;;;;;;;0.82;0.82;;;;;;;34.82;21.33;97788.97;4944391;28;20212;-76
2022/07/13 10:37:58;;;;;;;0.70;0.70;;;;;;;34.37;22.08;97784.03;4960450;28;20192;-76
2022/07/13 10:40:34;;;;;;;2.28;0.77;;;;;;;34.08;23.54;97792.09;4927860;28;20295;-75
2022/07/13 10:43:05;;;;;;;0.50;0.50;;;;;;;34.89;20.40;97787.03;4924898;28;20255;-75
2022/07/13 10:45:48;;;;;;;1.08;0.80;;;;;;;35.79;20.18;97785.88;4943377;28;20599;-75
2022/07/13 10:48:16;;;;;;;1.85;0.70;;;;;;;36.72;20.51;97776.97;4942167;28;20195;-76
2022/07/13 10:50:55;;;;;;;0.80;0.80;;;;;;;36.62;20.17;97764.25;4943802;28;20248;-76
2022/07/13 10:53:45;;;;;;;1.08;1.08;;;;;;;36.59;19.55;97778.63;4928226;28;20281;-76
2022/07/13 10:56:21;;;;;;;1.10;1.10;;;;;;;36.41;19.46;97780.75;4918640;28;20297;-76
2022/07/13 10:58:48;;;;;;;0.70;0.70;;;;;;;35.72;20.59;97769.66;4943765;28;20657;-76
2022/07/13 11:01:33;;;;;;;0.98;0.98;;;;;;;35.69;21.22;97762.31;4932980;28;20204;-76
2022/07/13 11:03:58;;;;;;;1.00;0.80;;;;;;;35.47;19.98;97767.84;4953138;28;20649;-75
2022/07/13 11:06:24;;;;;;;0.80;0.80;;;;;;;35.21;20.24;97761.78;4969245;28;20280;-75
2022/07/13 11:09:09;;;;;;;1.33;0.90;;;;;;;35.12;21.37;97772.25;4925394;28;20509;-76
2022/07/13 11:11:42;;;;;;;1.50;0.88;;;;;;;35.14;19.86;97763.75;4942646;28;20281;-76
2022/07/13 11:14:36;;;;;;;0.90;0.90;;;;;;;35.15;20.62;97759.84;4925216;28;20196;-76
2022/07/13 11:17:31;;;;;;;1.42;0.80;;;;;;;35.03;19.85;97761.84;4967612;28;20211;-76
2022/07/13 11:19:57;;;;;;;0.77;0.68;;;;;;;34.78;19.14;97767.34;4927275;28;20615;-76
2022/07/13 11:22:24;;;;;;;0.60;0.60;;;;;;;34.44;20.06;97758.91;4949701;28;20695;-76
2022/07/13 11:25:19;;;;;;;0.55;0.55;;;;;;;34.39;20.91;97759.31;4940639;28;20354;-76
2022/07/13 11:27:56;;;;;;;0.80;0.80;;;;;;;34.20;21.66;97741.56;4914538;28;20176;-76
2022/07/13 11:30:28;;;;;;;1.83;1.10;;;;;;;34.07;21.79;97746.56;4946287;28;20206;-75
2022/07/13 11:32:54;;;;;;;0.75;0.68;;;;;;;34.07;21.66;97750.03;4944186;28;20664;-76
2022/07/13 11:35:20;;;;;;;0.60;0.60;;;;;;;34.11;20.41;97747.34;4943222;28;20189;-75
2022/07/13 11:37:46;;;;;;;0.70;0.70;;;;;;;34.02;21.03;97745.03;4937196;28;20181;-75
2022/07/13 11:40:25;;;;;;;0.70;0.70;;;;;;;34.08;20.90;97740.00;4944388;28;20203;-75
2022/07/13 11:42:50;;;;;;;0.80;0.80;;;;;;;34.26;21.04;97738.09;4927193;28;20160;-76